Time;durP1;ratioP1;P1;durP2;ratioP2;P2;SDS_P1;SDS_P2;PMS_P1;PMS_P2;Temp;Humidity;BMP_temperature;BMP_pressure;BME280_temperature;BME280_humidity;BME280_pressure;Samples;Min_cycle;Max_cycle;Signal;HPM_P1;HPM_P2
2023/10/21 00:02:15;;;;;;;1.30;0.30;;;19.30;62.20;;;;;;6217191;28;20054;-65
2023/10/21 00:05:16;;;;;;;1.38;0.57;;;19.30;62.70;;;;;;6218014;28;20433;-65
2023/10/21 00:08:18;;;;;;;1.23;0.70;;;19.20;62.90;;;;;;6218277;28;20450;-65
2023/10/21 00:11:19;;;;;;;2.35;0.73;;;19.20;63.20;;;;;;6217725;28;20092;-64
2023/10/21 00:14:21;;;;;;;2.83;0.60;;;19.10;63.50;;;;;;6216905;28;20056;-65
2023/10/21 00:17:21;;;;;;;1.17;0.45;;;19.10;63.90;;;;;;6217756;28;20042;-64
2023/10/21 00:20:22;;;;;;;3.72;0.60;;;19.00;64.20;;;;;;6217821;28;20026;-65
2023/10/21 00:23:23;;;;;;;1.35;0.63;;;19.00;64.40;;;;;;6217917;28;20037;-65
2023/10/21 00:26:25;;;;;;;1.42;0.57;;;19.00;64.50;;;;;;6216735;28;20517;-65
2023/10/21 00:29:27;;;;;;;2.50;0.52;;;19.00;65.50;;;;;;6216059;28;20057;-66
2023/10/21 00:32:28;;;;;;;1.50;0.82;;;19.00;64.40;;;;;;6217924;28;20040;-66
2023/10/21 00:35:29;;;;;;;2.45;0.50;;;19.00;65.00;;;;;;6215952;28;20045;-66
2023/10/21 00:38:29;;;;;;;3.42;0.90;;;19.00;65.10;;;;;;6216889;28;20474;-64
2023/10/21 00:41:30;;;;;;;1.55;0.73;;;19.10;65.20;;;;;;6217533;28;20383;-65
2023/10/21 00:44:32;;;;;;;6.72;0.55;;;19.10;65.10;;;;;;6217543;28;20085;-65
2023/10/21 00:47:33;;;;;;;5.20;0.77;;;19.10;65.20;;;;;;6215702;28;20453;-66
2023/10/21 00:50:34;;;;;;;1.13;0.50;;;19.10;65.20;;;;;;6217207;28;20116;-65
2023/10/21 00:53:36;;;;;;;2.00;0.63;;;19.20;65.40;;;;;;6217371;28;20044;-64
2023/10/21 00:56:40;;;;;;;1.95;0.57;;;19.20;65.50;;;;;;6217201;28;20030;-67
2023/10/21 00:59:44;;;;;;;1.75;0.55;;;19.20;65.50;;;;;;6214351;28;20044;-65
2023/10/21 01:02:46;;;;;;;0.20;0.20;;;19.20;65.60;;;;;;6208671;28;20125;-64
2023/10/21 01:05:47;;;;;;;2.22;0.73;;;19.20;65.70;;;;;;6215215;28;20029;-65
2023/10/21 01:08:48;;;;;;;2.60;0.50;;;19.20;65.90;;;;;;6216640;28;20041;-66
2023/10/21 01:11:49;;;;;;;2.45;1.10;;;19.20;65.90;;;;;;6216892;28;20092;-66
2023/10/21 01:14:52;;;;;;;0.93;0.57;;;19.20;66.10;;;;;;6215591;28;20403;-66
2023/10/21 01:17:53;;;;;;;1.17;0.40;;;19.20;66.20;;;;;;6216702;28;20045;-65
2023/10/21 01:20:54;;;;;;;0.63;0.38;;;19.20;66.30;;;;;;6216691;28;20026;-65
2023/10/21 01:23:55;;;;;;;1.08;0.40;;;19.20;66.40;;;;;;6217092;28;20032;-65
2023/10/21 01:26:56;;;;;;;0.75;0.38;;;19.10;66.40;;;;;;6216739;28;20037;-66
2023/10/21 01:29:57;;;;;;;0.20;0.20;;;19.10;66.40;;;;;;6214938;28;20037;-65
2023/10/21 01:32:58;;;;;;;1.63;0.30;;;19.10;66.40;;;;;;6217084;28;20022;-64
2023/10/21 01:35:58;;;;;;;0.68;0.40;;;19.10;66.40;;;;;;6198780;28;20080;-65
2023/10/21 01:38:59;;;;;;;0.50;0.40;;;19.00;66.50;;;;;;6214469;28;20127;-65
2023/10/21 01:42:00;;;;;;;1.13;0.40;;;19.10;66.50;;;;;;6216158;28;20033;-65
2023/10/21 01:45:01;;;;;;;1.33;0.43;;;19.00;66.40;;;;;;6214633;28;20057;-65
2023/10/21 01:48:03;;;;;;;2.70;0.60;;;19.00;66.50;;;;;;6213774;28;20351;-66
2023/10/21 01:51:04;;;;;;;2.38;0.57;;;19.00;66.60;;;;;;6215492;28;20030;-65
2023/10/21 01:54:05;;;;;;;1.30;0.60;;;19.00;66.70;;;;;;6214482;28;20079;-65
2023/10/21 01:57:06;;;;;;;2.00;0.60;;;19.00;66.80;;;;;;6215818;28;20041;-65
2023/10/21 02:00:10;;;;;;;6.43;0.75;;;18.90;67.00;;;;;;6207774;28;20026;-67
2023/10/21 02:03:15;;;;;;;3.50;1.00;;;18.90;67.30;;;;;;6191651;28;20022;-66
2023/10/21 02:06:16;;;;;;;1.40;0.60;;;18.80;67.50;;;;;;6189637;28;20277;-65
2023/10/21 02:09:17;;;;;;;1.35;0.55;;;18.80;67.70;;;;;;6189763;28;20077;-65
2023/10/21 02:12:18;;;;;;;2.70;0.77;;;18.80;67.80;;;;;;6208254;28;20121;-65
2023/10/21 02:15:19;;;;;;;0.85;0.50;;;18.80;68.00;;;;;;6216573;28;20038;-65
2023/10/21 02:18:19;;;;;;;1.40;0.55;;;18.80;68.20;;;;;;6215400;28;20112;-65
2023/10/21 02:21:20;;;;;;;2.00;0.65;;;18.80;68.20;;;;;;6197950;28;20037;-65
2023/10/21 02:24:21;;;;;;;1.20;0.63;;;18.80;68.20;;;;;;6214742;28;20061;-65
2023/10/21 02:27:22;;;;;;;1.75;0.50;;;18.80;68.20;;;;;;6214554;28;20044;-66
2023/10/21 02:30:23;;;;;;;1.73;0.50;;;18.80;68.20;;;;;;6215277;28;20030;-65
2023/10/21 02:33:24;;;;;;;1.65;0.60;;;18.80;68.40;;;;;;6213811;28;20379;-66
2023/10/21 02:36:25;;;;;;;2.47;0.77;;;18.80;68.40;;;;;;6214071;28;20041;-65
2023/10/21 02:39:25;;;;;;;0.90;0.50;;;18.80;68.50;;;;;;6215109;28;20171;-65
2023/10/21 02:42:26;;;;;;;3.65;1.00;;;18.90;68.60;;;;;;6215358;28;20521;-66
2023/10/21 02:45:27;;;;;;;0.77;0.65;;;18.80;68.50;;;;;;6215131;28;20030;-65
2023/10/21 02:48:28;;;;;;;3.53;0.70;;;18.80;68.40;;;;;;6175455;28;20039;-65
2023/10/21 02:51:29;;;;;;;1.20;0.80;;;18.80;68.50;;;;;;6189187;28;20431;-66
2023/10/21 02:54:30;;;;;;;6.22;0.73;;;18.80;68.50;;;;;;6198768;28;20125;-66
2023/10/21 02:57:31;;;;;;;3.30;0.65;;;18.80;68.60;;;;;;6213437;28;20029;-67
2023/10/21 03:00:32;;;;;;;3.05;0.98;;;18.80;68.50;;;;;;6206649;28;20042;-65
2023/10/21 03:03:33;;;;;;;0.80;0.50;;;18.80;68.60;;;;;;6198700;28;20120;-65
2023/10/21 03:06:34;;;;;;;0.52;0.47;;;18.80;68.60;;;;;;6198301;28;20400;-66
2023/10/21 03:09:35;;;;;;;2.55;0.80;;;18.80;68.50;;;;;;6197239;28;20044;-65
2023/10/21 03:12:37;;;;;;;0.75;0.52;;;18.80;68.70;;;;;;6215419;28;20053;-65
2023/10/21 03:15:37;;;;;;;1.95;0.55;;;18.70;68.80;;;;;;6223074;28;20033;-65
2023/10/21 03:18:40;;;;;;;2.08;0.40;;;18.70;69.10;;;;;;6221174;28;20672;-65
2023/10/21 03:21:41;;;;;;;1.48;0.70;;;18.60;69.20;;;;;;6223138;28;20060;-65
2023/10/21 03:24:42;;;;;;;1.00;0.45;;;18.60;69.40;;;;;;6221485;28;20116;-64
2023/10/21 03:27:43;;;;;;;2.85;0.70;;;18.50;69.40;;;;;;6221434;28;20659;-65
2023/10/21 03:30:47;;;;;;;0.73;0.50;;;18.50;69.60;;;;;;6222170;28;20045;-66
2023/10/21 03:33:47;;;;;;;1.77;0.60;;;18.50;69.60;;;;;;6222462;28;20033;-65
2023/10/21 03:36:48;;;;;;;8.35;0.68;;;18.40;69.70;;;;;;6215700;28;20121;-64
2023/10/21 03:39:50;;;;;;;1.38;0.55;;;18.40;69.80;;;;;;6223679;28;20521;-64
2023/10/21 03:42:51;;;;;;;0.65;0.60;;;18.40;69.90;;;;;;6218788;28;20026;-64
2023/10/21 03:45:54;;;;;;;1.42;0.60;;;18.40;69.90;;;;;;6199214;28;20030;-64
2023/10/21 03:48:55;;;;;;;5.80;0.77;;;18.30;69.80;;;;;;6198377;28;20030;-66
2023/10/21 03:51:57;;;;;;;1.85;0.80;;;18.50;69.90;;;;;;6215807;28;20033;-66
2023/10/21 03:54:57;;;;;;;0.57;0.57;;;18.50;69.90;;;;;;6222571;28;20114;-66
2023/10/21 03:57:58;;;;;;;3.10;0.70;;;18.60;70.00;;;;;;6222787;28;20535;-68
2023/10/21 04:00:59;;;;;;;2.85;0.90;;;18.50;69.90;;;;;;6222506;28;20192;-66
2023/10/21 04:04:00;;;;;;;4.28;0.90;;;18.50;69.80;;;;;;6222729;28;20105;-65
2023/10/21 04:07:01;;;;;;;2.10;0.50;;;18.60;69.90;;;;;;6222460;28;20037;-65
2023/10/21 04:10:03;;;;;;;3.67;0.52;;;18.50;69.80;;;;;;6222605;28;20080;-65
2023/10/21 04:13:03;;;;;;;0.60;0.60;;;18.60;69.90;;;;;;6218697;28;20044;-66
2023/10/21 04:16:05;;;;;;;1.25;0.82;;;18.60;69.90;;;;;;6217533;28;20508;-66
2023/10/21 04:19:06;;;;;;;2.03;0.30;;;18.50;69.80;;;;;;6218900;28;20068;-66
2023/10/21 04:22:08;;;;;;;3.08;0.98;;;18.60;69.90;;;;;;6218526;28;20645;-67
2023/10/21 04:25:09;;;;;;;0.95;0.60;;;18.60;69.90;;;;;;6218535;28;20028;-66
2023/10/21 04:28:10;;;;;;;1.00;0.75;;;18.60;69.80;;;;;;6218366;28;20435;-65
2023/10/21 04:31:11;;;;;;;1.25;0.60;;;18.60;69.90;;;;;;6218066;28;20038;-64
2023/10/21 04:34:12;;;;;;;0.52;0.47;;;18.60;69.90;;;;;;6218262;28;20037;-66
2023/10/21 04:37:13;;;;;;;0.80;0.60;;;18.60;69.90;;;;;;6216278;28;20117;-66
2023/10/21 04:40:14;;;;;;;1.45;0.63;;;18.70;69.90;;;;;;6218315;28;20118;-65
2023/10/21 04:43:15;;;;;;;0.55;0.50;;;18.60;69.80;;;;;;6218059;28;20525;-65
2023/10/21 04:46:16;;;;;;;2.50;0.68;;;18.60;69.80;;;;;;6214251;28;20034;-64
2023/10/21 04:49:16;;;;;;;6.22;1.05;;;18.60;69.90;;;;;;6193372;28;20082;-65
2023/10/21 04:52:18;;;;;;;0.85;0.70;;;18.60;69.90;;;;;;6195974;28;20116;-66
2023/10/21 04:55:20;;;;;;;2.35;0.90;;;18.60;69.90;;;;;;6204603;28;20093;-66
2023/10/21 04:58:21;;;;;;;2.25;0.60;;;18.60;70.00;;;;;;6216384;28;20030;-65
2023/10/21 05:01:22;;;;;;;3.55;0.90;;;18.60;70.10;;;;;;6217313;28;20461;-66
2023/10/21 05:04:23;;;;;;;1.13;0.60;;;18.50;70.10;;;;;;6217323;28;20057;-65
2023/10/21 05:07:24;;;;;;;1.15;0.50;;;18.50;70.20;;;;;;6215920;28;20030;-66
2023/10/21 05:10:25;;;;;;;2.70;0.70;;;18.40;70.30;;;;;;6215267;28;20096;-66
2023/10/21 05:13:26;;;;;;;1.17;0.63;;;18.40;70.50;;;;;;6216815;28;20056;-64
2023/10/21 05:16:27;;;;;;;2.38;0.50;;;18.40;70.60;;;;;;6216832;28;20120;-66
2023/10/21 05:19:28;;;;;;;5.40;0.80;;;18.30;70.70;;;;;;6216268;28;20110;-65
2023/10/21 05:22:29;;;;;;;1.52;0.80;;;18.30;70.80;;;;;;6215232;28;20034;-65
2023/10/21 05:25:30;;;;;;;8.88;0.95;;;18.30;70.90;;;;;;6215455;28;20117;-64
2023/10/21 05:28:31;;;;;;;1.25;0.85;;;18.30;71.00;;;;;;6217067;28;20092;-65
2023/10/21 05:31:32;;;;;;;1.05;0.73;;;18.30;71.90;;;;;;6216603;28;20026;-65
2023/10/21 05:34:33;;;;;;;1.25;0.82;;;18.30;71.10;;;;;;6215361;28;20055;-66
2023/10/21 05:37:35;;;;;;;4.85;0.82;;;18.30;71.10;;;;;;6214798;28;20041;-65
2023/10/21 05:40:36;;;;;;;2.45;0.70;;;18.30;71.10;;;;;;6214299;28;20029;-68
2023/10/21 05:43:36;;;;;;;1.48;0.90;;;18.30;71.00;;;;;;6204470;28;20037;-66
2023/10/21 05:46:37;;;;;;;3.33;0.80;;;18.30;70.90;;;;;;6215423;28;20382;-67
2023/10/21 05:49:38;;;;;;;1.08;0.50;;;18.30;70.90;;;;;;6215838;28;20026;-64
2023/10/21 05:52:39;;;;;;;0.50;0.50;;;18.30;70.80;;;;;;6215983;28;20037;-66
2023/10/21 05:55:44;;;;;;;1.73;0.50;;;18.30;70.70;;;;;;6215141;28;20038;-65
2023/10/21 05:58:44;;;;;;;1.77;0.68;;;18.30;70.60;;;;;;6191679;28;20434;-66
2023/10/21 06:01:45;;;;;;;1.38;0.57;;;18.30;70.70;;;;;;6192667;28;20093;-65
2023/10/21 06:04:46;;;;;;;4.53;0.65;;;18.30;70.60;;;;;;6191378;28;20089;-66
2023/10/21 06:07:47;;;;;;;1.25;0.80;;;18.30;70.50;;;;;;6173534;28;20096;-66
2023/10/21 06:10:48;;;;;;;5.03;0.70;;;18.20;70.40;;;;;;6194477;28;20038;-66
2023/10/21 06:13:50;;;;;;;0.70;0.57;;;18.20;70.60;;;;;;6214420;28;20042;-65
2023/10/21 06:16:51;;;;;;;1.33;0.80;;;18.20;70.60;;;;;;6214973;28;20041;-65
2023/10/21 06:19:52;;;;;;;1.98;0.68;;;18.20;70.70;;;;;;6214604;28;20467;-66
2023/10/21 06:22:53;;;;;;;1.65;0.77;;;18.20;70.70;;;;;;6215123;28;20206;-65
2023/10/21 06:25:54;;;;;;;4.88;0.85;;;18.20;70.80;;;;;;6213495;28;20117;-65
2023/10/21 06:28:55;;;;;;;3.15;0.70;;;18.20;70.90;;;;;;6214902;28;20103;-65
2023/10/21 06:31:56;;;;;;;1.73;0.50;;;18.10;70.90;;;;;;6215063;28;20708;-66
2023/10/21 06:34:57;;;;;;;1.17;0.63;;;18.10;70.90;;;;;;6214696;28;20025;-65
2023/10/21 06:37:58;;;;;;;5.10;0.70;;;18.20;71.00;;;;;;6214818;28;20029;-65
2023/10/21 06:40:58;;;;;;;1.48;0.57;;;18.20;71.10;;;;;;6191418;28;20488;-65
2023/10/21 06:44:00;;;;;;;8.77;0.68;;;18.10;71.10;;;;;;6190509;28;20034;-66
2023/10/21 06:47:01;;;;;;;1.33;0.52;;;18.20;71.10;;;;;;6190047;28;20034;-66
2023/10/21 06:50:02;;;;;;;2.10;0.70;;;18.30;71.10;;;;;;6190145;28;20420;-67
2023/10/21 06:53:03;;;;;;;3.30;0.70;;;18.20;71.10;;;;;;6190634;28;20042;-67
2023/10/21 06:56:10;;;;;;;1.40;0.70;;;18.30;71.10;;;;;;6188851;28;20034;-67
2023/10/21 06:59:13;;;;;;;1.42;0.80;;;18.30;71.00;;;;;;6190109;28;20033;-66
2023/10/21 07:02:14;;;;;;;3.03;0.80;;;18.40;71.10;;;;;;6213347;28;20348;-66
2023/10/21 07:05:15;;;;;;;1.90;0.75;;;18.40;70.90;;;;;;6212884;28;20061;-66
2023/10/21 07:08:16;;;;;;;3.90;0.95;;;18.40;70.70;;;;;;6212703;28;20037;-67
2023/10/21 07:11:17;;;;;;;1.98;0.80;;;18.40;70.60;;;;;;6212764;28;20180;-67
2023/10/21 07:14:18;;;;;;;1.75;0.90;;;18.40;70.60;;;;;;6214788;28;20106;-66
2023/10/21 07:17:19;;;;;;;4.75;1.35;;;18.40;70.60;;;;;;6214597;28;20045;-65
2023/10/21 07:20:20;;;;;;;4.70;0.73;;;18.40;70.60;;;;;;6214089;28;20037;-66
2023/10/21 07:23:20;;;;;;;1.35;0.90;;;18.40;70.60;;;;;;6212808;28;20030;-68
2023/10/21 07:26:22;;;;;;;1.85;0.73;;;18.40;70.60;;;;;;6213959;28;20521;-66
2023/10/21 07:29:23;;;;;;;2.42;0.80;;;18.50;70.60;;;;;;6213990;28;20037;-67
2023/10/21 07:32:24;;;;;;;1.00;0.77;;;18.50;70.50;;;;;;6214301;28;20118;-66
2023/10/21 07:35:25;;;;;;;5.63;0.77;;;18.50;71.20;;;;;;6205624;28;20030;-67
2023/10/21 07:38:25;;;;;;;8.35;0.85;;;18.60;70.50;;;;;;6212994;28;20041;-67
2023/10/21 07:41:26;;;;;;;5.78;1.10;;;18.60;70.30;;;;;;6214400;28;20045;-67
2023/10/21 07:44:28;;;;;;;3.53;1.00;;;18.70;70.30;;;;;;6214144;28;20103;-65
2023/10/21 07:47:29;;;;;;;2.92;0.80;;;18.70;70.20;;;;;;6213996;28;20122;-65
2023/10/21 07:50:30;;;;;;;0.90;0.63;;;18.70;70.00;;;;;;6216640;28;20042;-67
2023/10/21 07:53:31;;;;;;;2.05;0.50;;;18.80;69.80;;;;;;6216833;28;20115;-65
2023/10/21 07:56:32;;;;;;;2.53;0.98;;;18.90;69.50;;;;;;6218126;28;20060;-66
2023/10/21 07:59:34;;;;;;;5.05;0.90;;;19.00;69.10;;;;;;6216305;28;20069;-67
2023/10/21 08:02:35;;;;;;;0.93;0.63;;;19.10;68.60;;;;;;6220076;28;20021;-67
2023/10/21 08:05:36;;;;;;;4.45;1.33;;;19.20;68.50;;;;;;6217427;28;20482;-65
2023/10/21 08:08:37;;;;;;;4.30;1.00;;;19.40;68.30;;;;;;6217941;28;20037;-68
2023/10/21 08:11:38;;;;;;;1.27;1.17;;;19.60;67.90;;;;;;6205220;28;20038;-66
2023/10/21 08:14:40;;;;;;;1.83;1.40;;;19.80;67.60;;;;;;6191834;28;20073;-66
2023/10/21 08:17:42;;;;;;;1.73;0.90;;;19.90;67.30;;;;;;6193170;28;20080;-65
2023/10/21 08:20:43;;;;;;;7.28;1.75;;;20.00;66.90;;;;;;6192898;28;20442;-66
2023/10/21 08:23:44;;;;;;;4.90;2.03;;;20.00;66.70;;;;;;6193247;28;20034;-65
2023/10/21 08:26:44;;;;;;;1.98;1.30;;;20.10;66.60;;;;;;6192963;28;20427;-67
2023/10/21 08:29:46;;;;;;;2.42;1.00;;;20.30;66.40;;;;;;6190977;28;20027;-67
2023/10/21 08:32:50;;;;;;;2.22;1.40;;;20.30;65.40;;;;;;6208762;28;20162;-67
2023/10/21 08:35:50;;;;;;;6.68;1.75;;;20.40;64.70;;;;;;6217048;28;20470;-67
2023/10/21 08:38:51;;;;;;;2.50;1.38;;;20.40;64.30;;;;;;6216197;28;20116;-67
2023/10/21 08:41:53;;;;;;;3.00;1.50;;;20.40;64.00;;;;;;6216729;28;20386;-67
2023/10/21 08:45:00;;;;;;;6.35;1.58;;;20.30;63.70;;;;;;6216641;28;20195;-65
2023/10/21 08:48:04;;;;;;;2.47;1.70;;;20.40;63.90;;;;;;6216369;28;20053;-66
2023/10/21 08:51:08;;;;;;;4.25;1.05;;;20.50;63.90;;;;;;6216447;28;20030;-68
2023/10/21 08:54:12;;;;;;;1.77;1.10;;;20.30;63.80;;;;;;6216646;28;20186;-66
2023/10/21 08:57:13;;;;;;;2.60;1.10;;;20.40;62.90;;;;;;6214686;28;20045;-67
2023/10/21 09:00:14;;;;;;;3.95;0.88;;;20.30;63.30;;;;;;6216153;28;20029;-65
2023/10/21 09:03:15;;;;;;;1.05;0.70;;;20.40;62.90;;;;;;6216583;28;20026;-66
2023/10/21 09:06:19;;;;;;;1.63;0.82;;;20.30;62.70;;;;;;6215238;28;20133;-69
2023/10/21 09:09:26;;;;;;;3.40;1.65;;;20.40;62.80;;;;;;6217008;28;20026;-66
2023/10/21 09:12:29;;;;;;;3.55;1.02;;;20.40;63.00;;;;;;6198920;28;20116;-68
2023/10/21 09:15:36;;;;;;;2.03;0.90;;;20.40;62.80;;;;;;6216478;28;20454;-66
2023/10/21 09:18:37;;;;;;;1.10;0.57;;;20.50;62.60;;;;;;6215963;28;20105;-67
2023/10/21 09:21:43;;;;;;;7.53;0.90;;;20.50;62.20;;;;;;6216278;28;20030;-68
2023/10/21 09:24:44;;;;;;;2.35;0.57;;;20.50;62.10;;;;;;6217664;28;20033;-69
2023/10/21 09:27:46;;;;;;;1.02;0.40;;;20.50;62.20;;;;;;6213624;28;20023;-65
2023/10/21 09:30:58;;;;;;;1.17;0.50;;;20.50;61.50;;;;;;6214338;28;20034;-68
2023/10/21 09:33:59;;;;;;;1.25;0.60;;;20.60;61.10;;;;;;6214636;28;20686;-69
2023/10/21 09:37:04;;;;;;;3.05;0.90;;;20.60;60.50;;;;;;6215995;28;20058;-67
2023/10/21 09:40:06;;;;;;;1.80;0.30;;;20.60;59.70;;;;;;6215409;28;20038;-67
2023/10/21 09:43:10;;;;;;;3.03;0.40;;;20.70;58.60;;;;;;6213789;28;20147;-67
2023/10/21 09:46:14;;;;;;;0.35;0.30;;;20.70;57.50;;;;;;6216141;28;20559;-67
2023/10/21 09:49:16;;;;;;;1.10;0.30;;;20.20;57.00;;;;;;6215361;28;20033;-64
2023/10/21 09:52:24;;;;;;;0.20;0.20;;;20.80;56.60;;;;;;6213632;28;20745;-67
2023/10/21 09:55:25;;;;;;;1.42;0.52;;;20.80;55.90;;;;;;6216298;28;20101;-66
2023/10/21 09:58:28;;;;;;;0.85;0.40;;;20.80;55.60;;;;;;6213609;28;20497;-67
2023/10/21 10:01:29;;;;;;;0.52;0.30;;;21.00;55.10;;;;;;6214707;28;20103;-68
2023/10/21 10:04:32;;;;;;;2.15;0.40;;;21.00;54.60;;;;;;6215378;28;20047;-67
2023/10/21 10:07:36;;;;;;;0.20;0.20;;;21.30;53.60;;;;;;6214708;28;20095;-65
2023/10/21 10:10:38;;;;;;;0.40;0.28;;;21.40;52.80;;;;;;6212474;28;20037;-66
2023/10/21 10:13:42;;;;;;;4.22;0.90;;;21.70;52.30;;;;;;6212969;28;20064;-67
2023/10/21 10:16:44;;;;;;;2.20;0.38;;;21.90;51.70;;;;;;6213986;28;20084;-66
2023/10/21 10:19:45;;;;;;;2.15;0.50;;;22.10;51.60;;;;;;6215671;28;20087;-67
2023/10/21 10:23:03;;;;;;;0.40;0.20;;;22.40;51.20;;;;;;6213910;28;20030;-65
2023/10/21 10:26:04;;;;;;;1.95;1.10;;;22.60;51.00;;;;;;6214366;28;20026;-67
2023/10/21 10:29:19;;;;;;;6.38;1.13;;;22.70;50.20;;;;;;6212615;28;20658;-67
2023/10/21 10:32:20;;;;;;;4.85;0.75;;;22.80;49.90;;;;;;6214159;28;20550;-66
2023/10/21 10:35:31;;;;;;;1.80;0.50;;;23.00;49.80;;;;;;6214255;28;20084;-66
2023/10/21 10:38:42;;;;;;;0.55;0.38;;;23.30;48.60;;;;;;6214060;28;20382;-67
2023/10/21 10:41:49;;;;;;;0.95;0.47;;;23.50;47.90;;;;;;6214103;28;20041;-65
2023/10/21 10:44:50;;;;;;;1.00;0.40;;;23.60;47.00;;;;;;6214299;28;20056;-66
2023/10/21 10:48:02;;;;;;;1.33;0.40;;;23.70;46.40;;;;;;6214560;28;20037;-66
2023/10/21 10:51:17;;;;;;;3.90;0.55;;;23.80;45.90;;;;;;6214739;28;20099;-66
2023/10/21 10:54:18;;;;;;;2.38;0.77;;;24.00;45.60;;;;;;6214710;28;20034;-65
2023/10/21 10:57:20;;;;;;;3.90;1.00;;;24.30;44.30;;;;;;6214334;28;20530;-67
2023/10/21 11:00:22;;;;;;;2.58;0.98;;;24.70;42.90;;;;;;6213758;28;20033;-67
2023/10/21 11:03:23;;;;;;;4.57;0.88;;;24.90;42.10;;;;;;6214113;28;20026;-66
2023/10/21 11:06:35;;;;;;;3.42;0.90;;;25.20;42.00;;;;;;6213736;28;20030;-68
2023/10/21 11:09:36;;;;;;;5.65;1.10;;;25.60;41.60;;;;;;6212294;28;20175;-68
2023/10/21 11:12:37;;;;;;;2.47;0.95;;;26.00;40.40;;;;;;6213788;28;20037;-65
2023/10/21 11:15:44;;;;;;;2.80;0.65;;;26.40;38.70;;;;;;6214147;28;20100;-65
2023/10/21 11:18:45;;;;;;;3.08;0.77;;;26.70;37.10;;;;;;6212268;28;20470;-66
2023/10/21 11:21:48;;;;;;;1.95;0.70;;;26.90;36.70;;;;;;6215522;28;20108;-65
2023/10/21 11:24:50;;;;;;;0.38;0.30;;;27.20;36.20;;;;;;6218865;28;20431;-66
2023/10/21 11:27:51;;;;;;;0.93;0.50;;;27.60;35.00;;;;;;6201094;28;20032;-67
2023/10/21 11:30:53;;;;;;;2.15;0.55;;;28.00;34.00;;;;;;6218807;28;20617;-67
2023/10/21 11:34:11;;;;;;;1.48;0.50;;;28.40;33.30;;;;;;6219192;28;20115;-65
2023/10/21 11:37:12;;;;;;;3.00;0.50;;;28.70;32.90;;;;;;6218987;28;20123;-67
2023/10/21 11:40:15;;;;;;;2.53;1.48;;;29.00;32.30;;;;;;6218387;28;20451;-65
2023/10/21 11:43:19;;;;;;;1.23;0.47;;;29.30;32.50;;;;;;6218645;28;20733;-67
2023/10/21 11:46:20;;;;;;;1.00;0.47;;;29.80;32.20;;;;;;6218498;28;20053;-67
2023/10/21 11:49:23;;;;;;;0.70;0.32;;;30.00;31.10;;;;;;6217831;28;20045;-66
2023/10/21 11:52:27;;;;;;;1.33;0.45;;;29.40;30.10;;;;;;6217630;28;20113;-67
2023/10/21 12:15:51;;;;;;;4.32;0.50;;;25.80;35.50;;;;;;6141527;29;20051;-67
2023/10/21 12:22:35;;;;;;;1.95;0.77;;;27.40;34.00;;;;;;6117508;29;20205;-66
2023/10/21 12:29:55;;;;;;;2.10;0.40;;;28.50;32.40;;;;;;6046926;29;20131;-65
2023/10/21 12:42:28;;;;;;;0.98;0.50;;;26.20;34.20;;;;;;6141623;29;20660;-65
2023/10/21 12:45:34;;;;;;;0.73;0.30;;;25.70;34.70;;;;;;6141146;29;20499;-66
2023/10/21 12:48:35;;;;;;;3.13;0.50;;;25.20;35.10;;;;;;6141306;29;20071;-67
2023/10/21 12:51:36;;;;;;;3.03;0.30;;;24.90;35.70;;;;;;6124794;29;20057;-65
2023/10/21 12:54:37;;;;;;;3.83;0.52;;;24.50;35.90;;;;;;6124826;29;20732;-66
2023/10/21 12:57:40;;;;;;;1.52;0.40;;;24.30;36.40;;;;;;6140995;29;20043;-67
2023/10/21 13:00:43;;;;;;;2.78;0.43;;;24.10;36.50;;;;;;6136402;28;20138;-67
2023/10/21 13:03:44;;;;;;;1.40;0.28;;;24.10;36.80;;;;;;6165183;28;20110;-65
2023/10/21 13:06:45;;;;;;;2.28;0.47;;;24.00;36.70;;;;;;6181670;28;20046;-66
2023/10/21 13:09:46;;;;;;;3.05;0.52;;;23.90;36.50;;;;;;6191853;28;20057;-66
2023/10/21 13:12:48;;;;;;;1.23;0.30;;;23.80;36.60;;;;;;6211629;28;20034;-68
2023/10/21 13:15:50;;;;;;;1.88;0.30;;;23.60;36.60;;;;;;6216566;28;20155;-67
2023/10/21 13:18:51;;;;;;;1.50;0.43;;;23.50;36.90;;;;;;6216352;28;20089;-65
2023/10/21 13:21:53;;;;;;;1.02;0.40;;;23.40;37.20;;;;;;6216410;28;20026;-67
2023/10/21 13:24:54;;;;;;;1.20;0.40;;;23.40;37.40;;;;;;6215762;28;20030;-66
2023/10/21 13:27:54;;;;;;;2.40;0.40;;;23.50;37.40;;;;;;6215940;28;20038;-67
2023/10/21 13:30:55;;;;;;;1.70;0.40;;;23.50;37.40;;;;;;6215597;28;20104;-66
2023/10/21 13:33:56;;;;;;;1.83;0.47;;;23.40;37.70;;;;;;6215883;28;20520;-66
2023/10/21 13:36:57;;;;;;;5.43;0.43;;;23.30;37.70;;;;;;6215587;28;20049;-65
2023/10/21 13:39:59;;;;;;;1.20;0.30;;;23.20;38.00;;;;;;6215597;28;20486;-66
2023/10/21 13:42:59;;;;;;;0.90;0.20;;;23.10;38.20;;;;;;6216237;28;20038;-66
2023/10/21 13:46:05;;;;;;;1.08;0.30;;;23.00;38.40;;;;;;6216565;28;20120;-67
2023/10/21 13:49:13;;;;;;;9.10;0.50;;;23.00;38.60;;;;;;6215615;28;20351;-67
2023/10/21 13:52:14;;;;;;;0.75;0.25;;;23.10;38.50;;;;;;6215643;28;20034;-66
2023/10/21 13:55:16;;;;;;;1.40;0.38;;;23.10;38.60;;;;;;6215819;28;20148;-65
2023/10/21 13:58:17;;;;;;;1.30;0.57;;;23.10;38.50;;;;;;6215488;28;20430;-67
2023/10/21 14:01:19;;;;;;;0.10;0.10;;;23.10;38.80;;;;;;6215246;28;20040;-65
2023/10/21 14:04:20;;;;;;;2.00;0.30;;;23.10;38.80;;;;;;6213688;28;20087;-67
2023/10/21 14:07:21;;;;;;;0.68;0.40;;;23.10;38.90;;;;;;6216373;28;20378;-67
2023/10/21 14:10:22;;;;;;;1.98;0.22;;;23.10;39.10;;;;;;6214560;28;20539;-68
2023/10/21 14:13:24;;;;;;;1.75;0.30;;;23.10;39.10;;;;;;6215398;28;20041;-65
2023/10/21 14:16:25;;;;;;;0.20;0.20;;;23.10;39.20;;;;;;6215272;28;20056;-67
2023/10/21 14:19:28;;;;;;;0.65;0.22;;;23.10;39.20;;;;;;6213748;28;20026;-66
2023/10/21 14:22:29;;;;;;;4.38;0.50;;;23.10;39.40;;;;;;6215454;28;20084;-66
2023/10/21 14:25:30;;;;;;;3.35;0.30;;;23.10;39.20;;;;;;6215422;28;20045;-67
2023/10/21 14:28:31;;;;;;;1.63;0.50;;;23.00;39.40;;;;;;6214996;28;20124;-66
2023/10/21 14:31:32;;;;;;;1.08;0.17;;;22.90;39.50;;;;;;6214619;28;20029;-67
2023/10/21 14:34:33;;;;;;;10.55;0.30;;;22.80;39.60;;;;;;6215112;28;20443;-66
2023/10/21 14:37:34;;;;;;;0.93;0.40;;;22.70;39.60;;;;;;6215351;28;20026;-68
2023/10/21 14:40:37;;;;;;;0.15;0.13;;;22.70;39.50;;;;;;6213766;28;20033;-69
2023/10/21 14:43:38;;;;;;;1.90;0.25;;;22.70;39.60;;;;;;6215202;28;20034;-65
2023/10/21 14:46:39;;;;;;;1.65;0.22;;;22.60;39.50;;;;;;6215074;28;20038;-68
2023/10/21 14:49:41;;;;;;;2.78;0.40;;;22.70;39.60;;;;;;6214966;28;20471;-67
2023/10/21 14:52:41;;;;;;;1.42;0.50;;;22.60;39.80;;;;;;6213274;28;20153;-68
2023/10/21 14:55:44;;;;;;;0.55;0.30;;;22.60;39.60;;;;;;6214572;28;20060;-67
2023/10/21 14:58:45;;;;;;;0.98;0.10;;;22.60;39.60;;;;;;6213253;28;20041;-65
2023/10/21 15:01:46;;;;;;;1.30;0.40;;;22.60;39.50;;;;;;6213776;28;20022;-66
2023/10/21 15:04:49;;;;;;;1.25;0.52;;;22.50;39.60;;;;;;6214324;28;20075;-69
2023/10/21 15:07:50;;;;;;;3.80;0.32;;;22.50;39.90;;;;;;6214740;28;20720;-67
2023/10/21 15:10:51;;;;;;;5.50;0.68;;;22.50;40.20;;;;;;6212774;28;20085;-66
2023/10/21 15:13:52;;;;;;;0.45;0.40;;;22.40;40.20;;;;;;6214799;28;20033;-67
2023/10/21 15:16:52;;;;;;;1.45;0.63;;;22.40;40.30;;;;;;6215013;28;20437;-67
2023/10/21 15:19:54;;;;;;;1.27;0.52;;;22.30;40.50;;;;;;6212879;28;20038;-67
2023/10/21 15:22:56;;;;;;;4.60;1.02;;;22.30;40.80;;;;;;6214034;28;20105;-67
2023/10/21 15:25:57;;;;;;;0.40;0.30;;;22.30;40.90;;;;;;6212320;28;20570;-66
2023/10/21 15:28:58;;;;;;;3.40;0.30;;;22.20;41.00;;;;;;6212024;28;20038;-66
2023/10/21 15:31:59;;;;;;;1.88;0.60;;;22.20;41.20;;;;;;6213377;28;20105;-67
2023/10/21 15:34:59;;;;;;;0.88;0.22;;;22.10;41.30;;;;;;6214069;28;20140;-65
2023/10/21 15:38:07;;;;;;;1.73;0.50;;;22.10;41.60;;;;;;6214149;28;20460;-67
2023/10/21 15:41:18;;;;;;;1.43;0.50;;;22.10;41.60;;;;;;6213573;28;20522;-66
2023/10/21 15:44:18;;;;;;;2.65;0.70;;;22.10;41.70;;;;;;6213647;28;20034;-67
2023/10/21 15:47:19;;;;;;;3.92;0.70;;;22.00;41.90;;;;;;6213491;28;20083;-65
2023/10/21 15:50:20;;;;;;;2.17;0.38;;;21.90;41.80;;;;;;6211414;28;20045;-66
2023/10/21 15:53:21;;;;;;;1.88;0.32;;;21.90;41.90;;;;;;6211702;28;20033;-67
2023/10/21 15:56:22;;;;;;;5.45;0.70;;;21.80;42.00;;;;;;6213803;28;20049;-67
2023/10/21 15:59:23;;;;;;;4.85;0.50;;;21.80;42.00;;;;;;6213164;28;20038;-66
2023/10/21 16:02:24;;;;;;;2.53;0.85;;;21.80;42.40;;;;;;6213506;28;20116;-66
2023/10/21 16:05:25;;;;;;;3.13;0.82;;;21.70;42.60;;;;;;6211925;28;20034;-66
2023/10/21 16:08:26;;;;;;;3.63;0.85;;;21.70;42.80;;;;;;6215465;28;20049;-67
2023/10/21 16:11:27;;;;;;;1.50;0.55;;;21.60;42.80;;;;;;6216166;28;20036;-66
2023/10/21 16:14:28;;;;;;;1.35;0.63;;;21.60;43.00;;;;;;6216799;28;20752;-68
2023/10/21 16:17:29;;;;;;;6.90;0.75;;;21.60;43.30;;;;;;6217997;28;20064;-67
2023/10/21 16:20:35;;;;;;;1.92;0.40;;;21.50;43.60;;;;;;6217910;28;20153;-68
2023/10/21 16:23:36;;;;;;;1.83;0.80;;;21.40;44.00;;;;;;6218109;28;20151;-66
2023/10/21 16:26:37;;;;;;;1.80;0.63;;;21.30;44.30;;;;;;6218058;28;20030;-66